Time;durP1;ratioP1;P1;durP2;ratioP2;P2;SDS_P1;SDS_P2;PMS_P1;PMS_P2;Temp;Humidity;BMP_temperature;BMP_pressure;BME280_temperature;BME280_humidity;BME280_pressure;Samples;Min_cycle;Max_cycle;Signal;HPM_P1;HPM_P2
2023/09/14 00:02:19;;;;;;;9.45;2.13;;;11.40;99.90;;;;;;5010832;28;20042;-89
2023/09/14 00:04:46;;;;;;;8.60;2.20;;;11.40;99.90;;;;;;4978922;28;20042;-88
2023/09/14 00:07:13;;;;;;;4.55;2.15;;;11.40;99.90;;;;;;5011084;28;20402;-89
2023/09/14 00:09:40;;;;;;;9.18;2.00;;;11.40;99.90;;;;;;4978819;28;20050;-90
2023/09/14 00:12:07;;;;;;;10.75;2.40;;;11.40;99.90;;;;;;4998994;28;20094;-90
2023/09/14 00:14:33;;;;;;;5.45;2.13;;;11.50;99.90;;;;;;4998076;28;20038;-90
2023/09/14 00:17:00;;;;;;;7.72;2.50;;;11.50;99.90;;;;;;4998849;28;20088;-90
2023/09/14 00:19:27;;;;;;;5.35;2.35;;;11.50;99.90;;;;;;4998533;28;20049;-90
2023/09/14 00:21:54;;;;;;;7.78;2.22;;;11.40;99.90;;;;;;5014658;28;20041;-89
2023/09/14 00:24:20;;;;;;;5.68;2.28;;;11.50;99.90;;;;;;4998052;28;20038;-90
2023/09/14 00:26:47;;;;;;;10.43;2.22;;;11.40;99.90;;;;;;5014199;28;20563;-90
2023/09/14 00:29:14;;;;;;;7.03;2.60;;;11.40;99.90;;;;;;4998376;28;20383;-90
2023/09/14 00:31:40;;;;;;;4.97;2.35;;;11.40;99.90;;;;;;5012247;28;20037;-90
2023/09/14 00:34:07;;;;;;;4.18;1.92;;;11.40;99.90;;;;;;4998231;28;20057;-89
2023/09/14 00:36:34;;;;;;;5.18;2.10;;;11.30;99.90;;;;;;4998138;28;20041;-89
2023/09/14 00:39:00;;;;;;;5.25;2.10;;;11.30;99.90;;;;;;4998446;28;20042;-90
2023/09/14 00:41:27;;;;;;;6.07;2.20;;;11.30;99.90;;;;;;5014014;28;20525;-91
2023/09/14 00:43:54;;;;;;;6.32;2.10;;;11.30;99.90;;;;;;4998254;28;20483;-90
2023/09/14 00:46:21;;;;;;;6.93;2.22;;;11.30;99.90;;;;;;4990522;28;20042;-90
2023/09/14 00:48:47;;;;;;;6.07;2.08;;;11.40;99.90;;;;;;4978545;28;20050;-90
2023/09/14 00:51:14;;;;;;;8.82;2.00;;;11.40;99.90;;;;;;4995038;28;20682;-89
2023/09/14 00:53:42;;;;;;;5.95;2.03;;;11.40;99.90;;;;;;4991957;28;20073;-90
2023/09/14 00:56:11;;;;;;;5.25;2.28;;;11.40;99.90;;;;;;4981425;28;20041;-90
2023/09/14 00:58:38;;;;;;;6.82;2.05;;;11.40;99.90;;;;;;4994457;28;20037;-90
2023/09/14 01:01:06;;;;;;;8.93;2.20;;;11.40;99.90;;;;;;4995067;28;20178;-90
2023/09/14 01:03:33;;;;;;;7.13;2.05;;;11.50;99.90;;;;;;5014184;28;20053;-90
2023/09/14 01:06:00;;;;;;;6.43;2.22;;;11.40;99.90;;;;;;5010184;28;20513;-90
2023/09/14 01:08:27;;;;;;;6.68;2.35;;;11.50;99.90;;;;;;5001167;28;20041;-83
2023/09/14 01:10:54;;;;;;;8.32;2.40;;;11.50;99.90;;;;;;5001709;28;20391;-90
2023/09/14 01:13:51;;;;;;;5.68;2.30;;;11.50;99.90;;;;;;5001434;28;20486;-90
2023/09/14 01:16:32;;;;;;;5.90;2.20;;;11.60;99.90;;;;;;5017673;28;20073;-89
2023/09/14 01:19:19;;;;;;;6.55;2.28;;;11.60;99.90;;;;;;5017633;28;20044;-90
2023/09/14 01:22:01;;;;;;;7.40;2.03;;;11.70;99.90;;;;;;5016876;28;20038;-89
2023/09/14 01:24:33;;;;;;;8.93;3.38;;;11.70;99.90;;;;;;5017010;28;20049;-90
2023/09/14 01:27:00;;;;;;;6.07;2.50;;;11.70;99.90;;;;;;5017146;28;20070;-89
2023/09/14 01:29:27;;;;;;;7.97;2.40;;;11.80;99.90;;;;;;5001118;28;20041;-89
2023/09/14 01:31:53;;;;;;;6.93;2.25;;;11.80;99.90;;;;;;5000902;28;20112;-91
2023/09/14 01:34:21;;;;;;;7.65;2.40;;;11.80;99.90;;;;;;5001135;28;20132;-89
2023/09/14 01:36:56;;;;;;;8.07;2.30;;;11.80;99.90;;;;;;5000696;28;20034;-89
2023/09/14 01:39:25;;;;;;;8.73;2.70;;;11.80;99.90;;;;;;5016958;28;20074;-89
2023/09/14 01:41:55;;;;;;;6.40;2.15;;;11.90;99.90;;;;;;5016610;28;20649;-90
2023/09/14 01:44:26;;;;;;;5.32;2.45;;;11.90;99.90;;;;;;5017240;28;20099;-90
2023/09/14 01:46:54;;;;;;;7.55;2.20;;;11.90;99.90;;;;;;5001214;28;20046;-90
2023/09/14 01:49:21;;;;;;;5.72;2.25;;;11.90;99.90;;;;;;5000938;28;20506;-90
2023/09/14 01:51:48;;;;;;;6.80;2.42;;;12.00;99.90;;;;;;5000295;28;20037;-88
2023/09/14 01:54:14;;;;;;;6.63;2.42;;;12.00;99.90;;;;;;5017001;28;20140;-90
2023/09/14 01:56:41;;;;;;;5.15;2.30;;;12.00;99.90;;;;;;5001022;28;20483;-90
2023/09/14 01:59:08;;;;;;;7.70;2.28;;;12.00;99.90;;;;;;5000833;28;20045;-89
2023/09/14 02:01:35;;;;;;;7.22;2.35;;;12.00;99.90;;;;;;5000293;28;20042;-86
2023/09/14 02:04:02;;;;;;;5.50;2.15;;;12.00;99.90;;;;;;5016299;28;20042;-89
2023/09/14 02:06:28;;;;;;;5.05;2.00;;;12.00;99.90;;;;;;5000479;28;20104;-90
2023/09/14 02:08:55;;;;;;;8.52;2.28;;;12.00;99.90;;;;;;5000344;28;20562;-89
2023/09/14 02:11:22;;;;;;;11.02;2.10;;;12.00;99.90;;;;;;5000565;28;20053;-89
2023/09/14 02:13:48;;;;;;;4.68;1.85;;;12.10;99.90;;;;;;4999040;28;20100;-89
2023/09/14 02:16:16;;;;;;;6.40;1.90;;;12.00;99.90;;;;;;5000434;28;20049;-90
2023/09/14 02:18:43;;;;;;;8.88;2.33;;;12.00;99.90;;;;;;5000146;28;20034;-89
2023/09/14 02:21:10;;;;;;;7.00;2.15;;;12.10;99.90;;;;;;5000457;28;20030;-89
2023/09/14 02:23:37;;;;;;;5.75;2.10;;;12.00;99.90;;;;;;4993934;28;20114;-84
2023/09/14 02:26:04;;;;;;;7.30;2.20;;;12.10;99.90;;;;;;4980824;28;20054;-90
2023/09/14 02:28:31;;;;;;;6.60;2.17;;;12.00;99.90;;;;;;4996969;28;20402;-90
2023/09/14 02:30:57;;;;;;;4.03;2.03;;;12.00;99.90;;;;;;4996805;28;20265;-90
2023/09/14 02:33:24;;;;;;;4.07;2.00;;;12.00;99.90;;;;;;4981194;28;20089;-89
2023/09/14 02:35:51;;;;;;;4.60;2.30;;;12.00;99.90;;;;;;4980338;28;20039;-90
2023/09/14 02:38:18;;;;;;;7.57;2.25;;;12.00;99.90;;;;;;4996949;28;20042;-89
2023/09/14 02:40:45;;;;;;;7.43;1.92;;;12.00;99.90;;;;;;4996087;28;20111;-90
2023/09/14 02:43:12;;;;;;;8.85;2.22;;;12.00;99.90;;;;;;4996773;28;20042;-90
2023/09/14 02:45:38;;;;;;;7.22;2.30;;;12.00;99.90;;;;;;5006818;28;20038;-90
2023/09/14 02:48:05;;;;;;;5.10;2.00;;;12.00;99.90;;;;;;4980273;28;20085;-90
2023/09/14 02:50:32;;;;;;;8.70;2.10;;;12.00;99.90;;;;;;4980686;28;20495;-90
2023/09/14 02:52:58;;;;;;;6.45;2.00;;;12.00;99.90;;;;;;4980059;28;20046;-90
2023/09/14 02:55:25;;;;;;;5.00;1.98;;;12.00;99.90;;;;;;4996209;28;20042;-90
2023/09/14 02:57:52;;;;;;;6.68;2.05;;;12.00;99.90;;;;;;4980617;28;20042;-90
2023/09/14 03:00:19;;;;;;;8.02;2.25;;;11.90;99.90;;;;;;4980578;28;20042;-90
2023/09/14 03:02:46;;;;;;;4.60;1.90;;;11.90;99.90;;;;;;4980217;28;20049;-90
2023/09/14 03:05:13;;;;;;;8.45;2.22;;;11.90;99.90;;;;;;4980213;28;20050;-90
2023/09/14 03:07:39;;;;;;;7.28;2.10;;;11.90;99.90;;;;;;4980474;28;20384;-90
2023/09/14 03:10:07;;;;;;;5.85;2.03;;;11.90;99.90;;;;;;4979890;28;20490;-89
2023/09/14 03:12:33;;;;;;;4.75;2.00;;;11.80;99.90;;;;;;4980728;28;20045;-89
2023/09/14 03:15:00;;;;;;;4.65;2.30;;;11.80;99.90;;;;;;4979937;28;20042;-90
2023/09/14 03:17:27;;;;;;;6.63;2.00;;;11.70;99.90;;;;;;4995288;28;20096;-90
2023/09/14 03:19:53;;;;;;;6.15;2.30;;;11.70;99.90;;;;;;4979805;28;20062;-90
2023/09/14 03:22:20;;;;;;;6.43;2.28;;;11.70;99.90;;;;;;4979874;28;20097;-90
2023/09/14 03:24:47;;;;;;;5.57;2.05;;;11.70;99.90;;;;;;4979565;28;20074;-89
2023/09/14 03:27:13;;;;;;;5.40;2.15;;;11.60;99.90;;;;;;4980366;28;20499;-90
2023/09/14 03:29:40;;;;;;;4.90;1.92;;;11.60;99.90;;;;;;4992532;28;20041;-90
2023/09/14 03:32:07;;;;;;;6.32;2.22;;;11.60;99.90;;;;;;4999198;28;20045;-90
2023/09/14 03:34:33;;;;;;;6.18;2.13;;;11.50;99.90;;;;;;4999255;28;20038;-90
2023/09/14 03:37:00;;;;;;;8.18;2.28;;;11.50;99.90;;;;;;5011055;28;20030;-89
2023/09/14 03:39:28;;;;;;;4.45;1.92;;;11.40;99.90;;;;;;4995823;28;20141;-90
2023/09/14 03:41:54;;;;;;;5.10;2.05;;;11.40;99.90;;;;;;4979482;28;20038;-87
2023/09/14 03:44:21;;;;;;;5.82;2.28;;;11.40;99.90;;;;;;4979504;28;20053;-90
2023/09/14 03:46:48;;;;;;;6.60;2.30;;;11.40;99.90;;;;;;4995980;28;20053;-88
2023/09/14 03:49:14;;;;;;;6.68;2.10;;;11.30;99.90;;;;;;5011314;28;20053;-89
2023/09/14 03:51:41;;;;;;;6.15;2.17;;;11.30;99.90;;;;;;4999099;28;20033;-90
2023/09/14 03:54:08;;;;;;;6.38;2.38;;;11.30;99.90;;;;;;5014583;28;20038;-90
2023/09/14 03:56:35;;;;;;;6.38;2.30;;;11.30;99.90;;;;;;4999435;28;20391;-90
2023/09/14 03:59:02;;;;;;;6.00;2.10;;;11.30;99.90;;;;;;4989000;28;20089;-90
2023/09/14 04:01:29;;;;;;;4.40;1.98;;;11.30;99.90;;;;;;4979670;28;20042;-91
2023/09/14 04:03:56;;;;;;;9.65;2.20;;;11.30;99.90;;;;;;4978811;28;20499;-89
2023/09/14 04:06:22;;;;;;;7.15;2.63;;;11.30;99.90;;;;;;4979438;28;20510;-90
2023/09/14 04:08:49;;;;;;;5.00;2.40;;;11.40;99.90;;;;;;4981673;28;20120;-90
2023/09/14 04:11:16;;;;;;;4.93;2.10;;;11.40;99.90;;;;;;4998305;28;20085;-90
2023/09/14 04:13:42;;;;;;;6.72;2.38;;;11.30;99.90;;;;;;4998396;28;20049;-87
2023/09/14 04:16:12;;;;;;;6.30;2.10;;;11.30;99.90;;;;;;4998604;28;20076;-89
2023/09/14 04:18:38;;;;;;;6.45;2.47;;;11.30;99.90;;;;;;4998731;28;20494;-90
2023/09/14 04:21:06;;;;;;;7.22;2.47;;;11.20;99.90;;;;;;4981047;28;20046;-89
2023/09/14 04:23:32;;;;;;;5.88;2.47;;;11.10;99.90;;;;;;4995527;28;20043;-89
2023/09/14 04:26:03;;;;;;;6.43;2.00;;;11.10;99.90;;;;;;4994657;28;20053;-89
2023/09/14 04:28:30;;;;;;;4.70;1.90;;;11.00;99.90;;;;;;4979495;28;20057;-91
2023/09/14 04:31:01;;;;;;;5.55;2.40;;;11.00;99.90;;;;;;4979042;28;20038;-88
2023/09/14 04:33:29;;;;;;;5.75;2.25;;;10.90;99.90;;;;;;4979910;28;20376;-90
2023/09/14 04:35:57;;;;;;;5.68;2.20;;;10.90;99.90;;;;;;5006695;28;20109;-90
2023/09/14 04:38:24;;;;;;;5.93;2.15;;;10.80;99.90;;;;;;5018373;28;20159;-90
2023/09/14 04:40:51;;;;;;;11.93;2.20;;;10.80;99.90;;;;;;5018457;28;20041;-90
2023/09/14 04:43:18;;;;;;;7.80;2.30;;;10.70;99.90;;;;;;5002128;28;20057;-90
2023/09/14 04:45:46;;;;;;;7.13;2.10;;;10.70;99.90;;;;;;5017804;28;20152;-90
2023/09/14 04:48:13;;;;;;;7.25;2.40;;;10.90;99.90;;;;;;5033562;28;20088;-90
2023/09/14 04:50:41;;;;;;;4.50;2.05;;;10.60;99.90;;;;;;5018508;28;20451;-90
2023/09/14 04:53:08;;;;;;;5.05;2.17;;;10.70;99.90;;;;;;5017955;28;20081;-89
2023/09/14 04:55:35;;;;;;;3.85;1.90;;;10.60;99.90;;;;;;5002229;28;20108;-90
2023/09/14 04:58:01;;;;;;;7.53;2.63;;;10.60;99.90;;;;;;5002036;28;20504;-87
2023/09/14 05:00:28;;;;;;;6.93;2.30;;;10.60;99.90;;;;;;5001608;28;20584;-90
2023/09/14 05:02:54;;;;;;;5.72;2.33;;;10.50;99.90;;;;;;4986785;28;20046;-90
2023/09/14 05:05:21;;;;;;;7.60;2.20;;;10.50;99.90;;;;;;4997722;28;20042;-90
2023/09/14 05:07:48;;;;;;;4.78;2.10;;;10.50;99.90;;;;;;4998868;28;20050;-90
2023/09/14 05:10:16;;;;;;;7.13;2.10;;;10.40;99.90;;;;;;4981641;28;20117;-90
2023/09/14 05:12:42;;;;;;;7.88;2.33;;;10.40;99.90;;;;;;4990507;28;20038;-90
2023/09/14 05:15:09;;;;;;;3.72;2.10;;;10.40;99.90;;;;;;5001145;28;20111;-91
2023/09/14 05:17:36;;;;;;;6.45;2.30;;;10.40;99.90;;;;;;5001445;28;20042;-89
2023/09/14 05:20:07;;;;;;;5.85;2.42;;;10.40;99.90;;;;;;5001677;28;20120;-90
2023/09/14 05:22:34;;;;;;;4.82;2.13;;;10.30;99.90;;;;;;5002208;28;20034;-89
2023/09/14 05:25:03;;;;;;;3.92;2.00;;;10.30;99.90;;;;;;5001485;28;20053;-89
2023/09/14 05:27:38;;;;;;;8.45;2.20;;;10.30;99.90;;;;;;5033815;28;20049;-91
2023/09/14 05:30:06;;;;;;;7.28;2.30;;;10.40;99.90;;;;;;5017393;28;20037;-82
2023/09/14 05:32:33;;;;;;;4.60;2.38;;;10.30;99.90;;;;;;5001607;28;20045;-90
2023/09/14 05:34:59;;;;;;;6.30;2.30;;;10.40;99.90;;;;;;4999073;28;20046;-89
2023/09/14 05:37:27;;;;;;;16.88;2.97;;;10.40;99.90;;;;;;4981332;28;20046;-89
2023/09/14 05:39:54;;;;;;;3.60;1.95;;;10.30;99.90;;;;;;4996638;28;20502;-90
2023/09/14 05:42:23;;;;;;;6.72;1.98;;;10.40;99.90;;;;;;5037665;28;20049;-90
2023/09/14 05:44:50;;;;;;;6.07;2.38;;;10.30;99.90;;;;;;5017717;28;20130;-90
2023/09/14 05:47:17;;;;;;;7.03;2.53;;;10.40;99.90;;;;;;5031743;28;20432;-90
2023/09/14 05:49:44;;;;;;;6.25;2.53;;;10.40;99.90;;;;;;5016894;28;20048;-90
2023/09/14 05:52:11;;;;;;;6.05;2.30;;;10.40;99.90;;;;;;5000758;28;20049;-90
2023/09/14 05:54:37;;;;;;;11.68;2.78;;;10.40;99.90;;;;;;5000750;28;20046;-90
2023/09/14 05:57:04;;;;;;;8.10;2.20;;;10.50;99.90;;;;;;5000360;28;20133;-90
2023/09/14 05:59:31;;;;;;;5.20;2.40;;;10.50;99.90;;;;;;4997398;28;20050;-90
2023/09/14 06:01:57;;;;;;;6.95;2.08;;;10.60;99.90;;;;;;4981697;28;20049;-88
2023/09/14 06:04:24;;;;;;;4.60;2.10;;;10.60;99.90;;;;;;4997016;28;20042;-89
2023/09/14 06:06:51;;;;;;;5.40;2.38;;;10.70;99.90;;;;;;4981253;28;20081;-91
2023/09/14 06:09:17;;;;;;;6.78;2.10;;;10.70;99.90;;;;;;4978393;28;20396;-89
2023/09/14 06:11:44;;;;;;;7.07;2.15;;;10.70;99.90;;;;;;4977872;28;20077;-90
2023/09/14 06:14:11;;;;;;;6.28;2.13;;;10.70;99.90;;;;;;4993768;28;20134;-90
2023/09/14 06:16:37;;;;;;;6.53;2.33;;;10.80;99.90;;;;;;4977682;28;20038;-91
2023/09/14 06:19:04;;;;;;;9.10;2.30;;;10.80;99.90;;;;;;4987459;28;20046;-88
2023/09/14 06:21:31;;;;;;;7.30;2.10;;;10.80;99.90;;;;;;4996218;28;20112;-88
2023/09/14 06:23:57;;;;;;;11.32;2.30;;;10.90;99.90;;;;;;4996628;28;20475;-89
2023/09/14 06:26:27;;;;;;;7.65;2.13;;;10.90;99.90;;;;;;4996144;28;20046;-89
2023/09/14 06:28:55;;;;;;;5.25;2.20;;;11.00;99.90;;;;;;4992546;28;20483;-88
2023/09/14 06:31:25;;;;;;;7.80;2.38;;;11.00;99.90;;;;;;4977412;28;20054;-88
2023/09/14 06:33:52;;;;;;;5.78;2.00;;;11.10;99.90;;;;;;4976665;28;20451;-88
2023/09/14 06:36:19;;;;;;;6.82;2.15;;;11.10;99.90;;;;;;4992546;28;20074;-87
2023/09/14 06:38:47;;;;;;;5.85;1.95;;;11.20;99.90;;;;;;4992864;28;20074;-88
2023/09/14 06:41:15;;;;;;;6.53;2.42;;;11.20;99.90;;;;;;4994412;28;20048;-80
2023/09/14 06:43:44;;;;;;;7.68;2.20;;;11.30;99.90;;;;;;5010693;28;20471;-80
2023/09/14 06:46:11;;;;;;;6.93;2.00;;;11.30;99.90;;;;;;5027156;28;20491;-80
2023/09/14 06:48:39;;;;;;;5.95;1.98;;;11.40;99.90;;;;;;4994709;28;20052;-80
2023/09/14 06:51:06;;;;;;;6.95;2.00;;;11.40;99.90;;;;;;5000437;28;20399;-80
2023/09/14 06:53:33;;;;;;;4.68;1.92;;;11.50;99.90;;;;;;4984436;28;20053;-80
2023/09/14 06:56:07;;;;;;;10.07;2.05;;;11.60;99.90;;;;;;4997047;28;20065;-80
2023/09/14 06:58:34;;;;;;;6.45;2.10;;;11.70;99.90;;;;;;4994731;28;20041;-80
2023/09/14 07:01:04;;;;;;;8.63;2.28;;;11.70;99.90;;;;;;5010596;28;20084;-80
2023/09/14 07:03:31;;;;;;;6.70;2.20;;;11.70;99.90;;;;;;5005454;28;20058;-80
2023/09/14 07:05:59;;;;;;;3.65;1.63;;;11.80;99.90;;;;;;5000258;28;20030;-80
2023/09/14 07:08:25;;;;;;;10.60;2.20;;;11.80;99.90;;;;;;5007174;28;20049;-81
2023/09/14 07:10:54;;;;;;;5.88;1.90;;;11.90;99.90;;;;;;4990817;28;20062;-80
2023/09/14 07:13:21;;;;;;;4.78;1.70;;;11.90;99.90;;;;;;4990675;28;20487;-80
2023/09/14 07:15:48;;;;;;;8.27;1.90;;;12.00;99.90;;;;;;4973848;28;20035;-81
2023/09/14 07:18:29;;;;;;;5.13;1.60;;;12.00;99.90;;;;;;4994218;28;20041;-88
2023/09/14 07:20:58;;;;;;;5.97;1.63;;;12.10;99.90;;;;;;4997857;28;20458;-80
2023/09/14 07:23:25;;;;;;;7.07;1.73;;;12.20;99.90;;;;;;5025518;28;20074;-80
2023/09/14 07:25:52;;;;;;;5.20;1.85;;;12.20;99.90;;;;;;4996806;28;20487;-80
2023/09/14 07:28:19;;;;;;;6.38;1.90;;;12.30;99.90;;;;;;4983193;28;20046;-80
2023/09/14 07:30:48;;;;;;;6.25;1.90;;;12.50;99.90;;;;;;4993599;28;20443;-79
2023/09/14 07:33:15;;;;;;;3.45;1.45;;;12.60;99.90;;;;;;4994121;28;20050;-80
2023/09/14 07:35:43;;;;;;;7.78;1.90;;;12.70;99.90;;;;;;5008084;28;20172;-80
2023/09/14 07:38:12;;;;;;;9.02;2.22;;;12.80;99.90;;;;;;4974936;28;20043;-81
2023/09/14 07:40:40;;;;;;;9.00;2.35;;;13.00;99.90;;;;;;4974532;28;20070;-80
2023/09/14 07:43:07;;;;;;;16.52;2.70;;;13.10;99.90;;;;;;4983104;28;20121;-80
2023/09/14 07:45:34;;;;;;;14.73;2.90;;;13.20;99.90;;;;;;4994204;28;20129;-80
2023/09/14 07:48:02;;;;;;;18.42;2.67;;;13.30;99.90;;;;;;4958794;28;20034;-80
2023/09/14 07:50:29;;;;;;;9.40;2.28;;;13.50;99.90;;;;;;5006171;28;20050;-80
2023/09/14 07:52:56;;;;;;;9.07;2.05;;;13.60;99.90;;;;;;4974965;28;20035;-80
2023/09/14 07:55:23;;;;;;;6.13;2.05;;;13.70;99.90;;;;;;4974188;28;20042;-80
2023/09/14 07:57:53;;;;;;;5.35;1.40;;;13.80;99.90;;;;;;5006645;28;20078;-80
2023/09/14 08:00:19;;;;;;;3.47;1.38;;;13.90;99.90;;;;;;4990182;28;20077;-80
2023/09/14 08:02:46;;;;;;;4.32;1.38;;;14.00;99.90;;;;;;4973868;28;20046;-80
2023/09/14 08:05:13;;;;;;;6.75;1.35;;;14.10;99.90;;;;;;4974620;28;20050;-79
2023/09/14 08:07:40;;;;;;;4.05;1.42;;;14.20;99.90;;;;;;4974015;28;20089;-80
2023/09/14 08:10:08;;;;;;;3.25;1.05;;;14.30;99.90;;;;;;4973998;28;20055;-80
2023/09/14 08:12:38;;;;;;;5.68;1.30;;;14.40;99.90;;;;;;4992929;28;20042;-80
2023/09/14 08:15:05;;;;;;;7.28;1.40;;;14.50;99.90;;;;;;4978485;28;20515;-81
2023/09/14 08:17:32;;;;;;;4.43;1.05;;;14.60;99.90;;;;;;4977673;28;20113;-80
2023/09/14 08:19:59;;;;;;;3.58;1.00;;;14.80;99.90;;;;;;4994158;28;20403;-80
2023/09/14 08:22:26;;;;;;;3.83;1.10;;;14.90;99.90;;;;;;5010125;28;20085;-79
2023/09/14 08:24:54;;;;;;;7.68;1.30;;;15.00;99.90;;;;;;4977631;28;20034;-80
2023/09/14 08:27:21;;;;;;;6.45;1.10;;;15.20;99.90;;;;;;4993998;28;20046;-79
2023/09/14 08:29:48;;;;;;;5.15;1.27;;;15.30;99.90;;;;;;4993706;28;20105;-80
2023/09/14 08:32:15;;;;;;;3.33;1.20;;;15.40;99.90;;;;;;4977629;28;20073;-80
2023/09/14 08:34:41;;;;;;;5.82;1.50;;;15.50;99.90;;;;;;4993480;28;20500;-80
2023/09/14 08:37:09;;;;;;;10.45;1.33;;;15.60;99.90;;;;;;4977734;28;20408;-79
2023/09/14 08:39:36;;;;;;;6.45;1.00;;;15.80;99.90;;;;;;4977491;28;20043;-80
2023/09/14 08:42:04;;;;;;;8.23;1.40;;;15.90;99.90;;;;;;4978049;28;20045;-80
2023/09/14 08:44:34;;;;;;;6.75;1.35;;;16.00;99.90;;;;;;4977704;28;20042;-79
2023/09/14 08:47:02;;;;;;;6.85;1.10;;;16.20;99.90;;;;;;5016312;28;20406;-80
2023/09/14 08:49:31;;;;;;;34.40;4.60;;;16.30;99.90;;;;;;4996895;28;20050;-81
2023/09/14 08:52:02;;;;;;;5.93;1.25;;;16.40;99.90;;;;;;4997041;28;20042;-80
2023/09/14 08:54:29;;;;;;;4.43;1.10;;;16.50;99.90;;;;;;5012849;28;20046;-80
2023/09/14 08:56:56;;;;;;;3.85;1.08;;;16.70;99.90;;;;;;4996701;28;20050;-80
2023/09/14 08:59:23;;;;;;;8.25;1.55;;;16.80;99.90;;;;;;4996651;28;20042;-80
2023/09/14 09:01:50;;;;;;;5.43;1.15;;;16.80;99.90;;;;;;5012384;28;20051;-80
2023/09/14 09:04:17;;;;;;;6.05;0.90;;;17.00;99.90;;;;;;4996704;28;20447;-80
2023/09/14 09:06:44;;;;;;;5.40;0.95;;;17.00;99.90;;;;;;4984209;28;20491;-80
2023/09/14 09:09:15;;;;;;;4.88;1.00;;;17.00;99.90;;;;;;4980328;28;20055;-80
2023/09/14 09:11:42;;;;;;;7.43;1.17;;;16.90;99.90;;;;;;4979253;28;20135;-80
2023/09/14 09:14:09;;;;;;;5.57;1.05;;;17.00;99.90;;;;;;4995526;28;20480;-80
2023/09/14 09:16:38;;;;;;;6.75;1.02;;;17.00;99.90;;;;;;4994999;28;20129;-81
2023/09/14 09:19:06;;;;;;;4.65;1.02;;;17.00;99.90;;;;;;4995257;28;20044;-79
2023/09/14 09:21:34;;;;;;;6.28;1.25;;;17.00;99.90;;;;;;5011453;28;20138;-79
2023/09/14 09:24:05;;;;;;;3.45;1.30;;;17.00;99.90;;;;;;5010636;28;20506;-80
2023/09/14 09:26:36;;;;;;;6.53;1.23;;;17.10;99.90;;;;;;5011209;28;20046;-79
2023/09/14 09:29:17;;;;;;;3.05;1.00;;;17.20;99.90;;;;;;4996145;28;20043;-80
2023/09/14 09:31:46;;;;;;;5.00;1.30;;;17.30;99.90;;;;;;4990369;28;20178;-78
2023/09/14 09:34:14;;;;;;;4.57;1.15;;;17.40;99.90;;;;;;4990034;28;20082;-79
2023/09/14 09:36:41;;;;;;;3.05;1.05;;;17.40;99.90;;;;;;4973428;28;20058;-77
2023/09/14 09:39:11;;;;;;;4.82;1.27;;;17.50;99.90;;;;;;4991938;28;20049;-78
2023/09/14 09:41:38;;;;;;;3.15;1.00;;;17.60;99.90;;;;;;4975507;28;20049;-80
2023/09/14 09:44:09;;;;;;;3.58;1.10;;;17.60;99.90;;;;;;5007841;28;20046;-79
2023/09/14 09:46:36;;;;;;;3.63;0.93;;;17.60;99.90;;;;;;4979390;28;20052;-79
2023/09/14 09:49:05;;;;;;;4.80;0.98;;;17.80;99.90;;;;;;4992552;28;20121;-79
2023/09/14 09:51:33;;;;;;;3.85;1.10;;;17.80;99.90;;;;;;4994384;28;20076;-79
2023/09/14 09:54:05;;;;;;;5.55;1.10;;;17.90;99.90;;;;;;4994259;28;20046;-79
2023/09/14 09:56:36;;;;;;;3.92;1.05;;;17.90;99.90;;;;;;5009733;28;20049;-79
2023/09/14 09:59:05;;;;;;;7.80;1.40;;;18.00;99.90;;;;;;5008698;28;20589;-80
2023/09/14 10:01:32;;;;;;;8.13;1.27;;;17.90;99.90;;;;;;4994713;28;20034;-79
2023/09/14 10:03:59;;;;;;;2.33;1.02;;;17.80;99.90;;;;;;4993369;28;20133;-77
2023/09/14 10:06:27;;;;;;;5.38;1.30;;;17.70;99.90;;;;;;4993945;28;20475;-79
2023/09/14 10:08:57;;;;;;;4.13;1.40;;;17.70;99.90;;;;;;4955046;28;1115455;-80
2023/09/14 10:11:26;;;;;;;4.95;1.40;;;17.40;99.90;;;;;;4981509;28;20169;-80
2023/09/14 10:13:53;;;;;;;4.95;1.35;;;17.30;99.90;;;;;;4994743;28;20400;-80
2023/09/14 10:16:25;;;;;;;4.53;1.50;;;17.10;99.90;;;;;;5004259;28;20044;-82
2023/09/14 10:18:56;;;;;;;5.53;1.40;;;17.20;99.90;;;;;;4994932;28;20039;-82
2023/09/14 10:21:24;;;;;;;6.03;1.20;;;17.30;99.90;;;;;;4979373;28;20034;-80
2023/09/14 10:23:52;;;;;;;9.30;1.40;;;17.50;99.90;;;;;;4979267;28;20038;-82
2023/09/14 10:26:19;;;;;;;6.22;1.30;;;17.60;99.90;;;;;;4995529;28;20474;-86
2023/09/14 10:28:49;;;;;;;5.72;1.58;;;17.90;99.90;;;;;;4998119;28;20081;-87
2023/09/14 10:31:17;;;;;;;5.70;1.48;;;18.20;99.90;;;;;;4980029;28;20065;-87
2023/09/14 10:33:49;;;;;;;9.45;1.42;;;18.30;99.90;;;;;;5010897;28;20403;-83
2023/09/14 10:36:16;;;;;;;9.77;1.55;;;18.30;99.90;;;;;;4995309;28;20050;-87
2023/09/14 10:38:43;;;;;;;8.70;1.40;;;18.40;99.90;;;;;;4980052;28;20042;-88
2023/09/14 10:41:11;;;;;;;6.78;1.40;;;18.20;99.90;;;;;;5011327;28;20502;-87
2023/09/14 10:43:39;;;;;;;4.05;1.48;;;18.00;99.90;;;;;;4996021;28;20046;-89
2023/09/14 10:46:14;;;;;;;4.72;1.50;;;17.90;99.90;;;;;;5003485;28;20050;-86
2023/09/14 10:48:41;;;;;;;7.63;1.55;;;17.90;99.90;;;;;;5011914;28;20042;-89
2023/09/14 10:51:10;;;;;;;5.18;1.25;;;18.00;99.90;;;;;;4995504;28;20443;-89
2023/09/14 10:53:40;;;;;;;5.88;1.20;;;17.90;99.90;;;;;;5012204;28;20046;-86
2023/09/14 10:56:19;;;;;;;3.63;1.27;;;17.80;99.90;;;;;;5011337;28;20048;-87
2023/09/14 10:58:49;;;;;;;5.22;1.27;;;17.60;99.90;;;;;;5011398;28;20084;-86
2023/09/14 11:01:25;;;;;;;6.40;1.23;;;17.50;99.90;;;;;;4979504;28;20035;-89
2023/09/14 11:04:25;;;;;;;4.18;1.42;;;17.50;99.90;;;;;;4994836;28;20046;-88
2023/09/14 11:06:54;;;;;;;4.43;1.45;;;17.40;99.90;;;;;;4984352;28;20137;-88
2023/09/14 11:09:21;;;;;;;4.15;1.40;;;17.50;99.90;;;;;;4994280;28;20046;-88
2023/09/14 11:11:50;;;;;;;4.65;1.52;;;17.50;99.90;;;;;;4997667;28;20053;-88
2023/09/14 11:14:18;;;;;;;7.30;1.40;;;17.50;99.90;;;;;;4998744;28;20041;-88
2023/09/14 11:16:54;;;;;;;5.65;1.63;;;17.50;99.90;;;;;;5014560;28;20407;-87
2023/09/14 11:19:30;;;;;;;4.65;1.30;;;17.40;99.90;;;;;;4993027;28;20057;-87
2023/09/14 11:22:04;;;;;;;7.18;1.80;;;17.30;99.90;;;;;;4999378;28;20121;-88
2023/09/14 11:24:35;;;;;;;5.95;1.55;;;17.30;99.90;;;;;;4993554;28;20038;-89
2023/09/14 11:27:02;;;;;;;4.55;2.03;;;17.20;99.90;;;;;;4978996;28;20042;-89
2023/09/14 11:29:32;;;;;;;8.57;1.70;;;17.30;99.90;;;;;;4991608;28;20042;-88
2023/09/14 11:32:06;;;;;;;5.07;1.30;;;17.50;99.90;;;;;;5014503;28;20038;-89
2023/09/14 11:34:36;;;;;;;7.47;1.35;;;17.80;99.90;;;;;;5030891;28;20046;-89
2023/09/14 11:37:05;;;;;;;3.97;1.25;;;18.00;99.90;;;;;;5014474;28;20084;-89
2023/09/14 11:39:34;;;;;;;4.47;1.30;;;18.30;99.90;;;;;;5014794;28;20049;-89
2023/09/14 11:42:01;;;;;;;5.85;1.50;;;18.50;99.90;;;;;;5014118;28;20045;-89
2023/09/14 11:44:29;;;;;;;5.80;1.30;;;18.80;99.90;;;;;;5015092;28;20046;-90
2023/09/14 11:46:59;;;;;;;8.18;1.40;;;18.90;99.90;;;;;;5013857;28;20536;-89
2023/09/14 11:49:29;;;;;;;5.22;1.42;;;19.10;99.90;;;;;;4995469;28;20042;-90
2023/09/14 11:51:56;;;;;;;6.40;1.65;;;19.20;99.90;;;;;;4994983;28;20130;-88
2023/09/14 11:54:28;;;;;;;8.10;1.58;;;19.10;99.90;;;;;;4994948;28;20137;-89
2023/09/14 11:57:08;;;;;;;4.75;1.45;;;19.10;99.90;;;;;;4995090;28;20042;-88
2023/09/14 11:59:35;;;;;;;8.25;1.65;;;19.10;99.90;;;;;;5013583;28;20049;-88
2023/09/14 12:02:03;;;;;;;6.18;1.50;;;19.30;99.90;;;;;;4996789;28;20039;-87
2023/09/14 12:04:31;;;;;;;5.07;1.50;;;19.40;99.90;;;;;;5010221;28;20042;-89
2023/09/14 12:07:02;;;;;;;5.70;1.50;;;19.40;99.90;;;;;;4986773;28;20110;-88
2023/09/14 12:09:38;;;;;;;3.90;1.35;;;19.30;99.90;;;;;;4999811;28;20499;-90
2023/09/14 12:12:06;;;;;;;4.15;1.63;;;19.30;99.90;;;;;;4994213;28;20046;-88
2023/09/14 12:14:38;;;;;;;2.80;1.23;;;19.10;99.90;;;;;;4991340;28;20480;-89
2023/09/14 12:17:24;;;;;;;8.13;1.77;;;18.90;99.90;;;;;;5013140;28;20045;-88
2023/09/14 12:19:53;;;;;;;3.53;1.42;;;18.90;99.90;;;;;;4994406;28;20118;-88
2023/09/14 12:22:21;;;;;;;4.22;1.30;;;18.90;99.90;;;;;;4978428;28;20068;-88
2023/09/14 12:24:50;;;;;;;5.53;1.58;;;18.80;99.90;;;;;;5000354;28;20506;-87
2023/09/14 12:27:20;;;;;;;7.35;1.50;;;18.60;99.90;;;;;;5013755;28;20128;-88
2023/09/14 12:29:48;;;;;;;7.05;1.50;;;18.40;99.90;;;;;;4986275;28;20042;-88
2023/09/14 12:32:16;;;;;;;4.60;1.42;;;18.30;99.90;;;;;;4997210;28;20042;-87
2023/09/14 12:34:45;;;;;;;5.78;1.40;;;18.10;99.90;;;;;;5010479;28;20038;-88
2023/09/14 12:37:19;;;;;;;6.10;1.40;;;18.10;99.90;;;;;;4989846;28;20037;-88
2023/09/14 12:39:51;;;;;;;5.50;1.60;;;18.10;99.90;;;;;;5001688;28;20081;-88
2023/09/14 12:42:22;;;;;;;5.07;1.63;;;18.00;99.90;;;;;;5019610;28;20393;-87
2023/09/14 12:44:51;;;;;;;4.60;1.45;;;18.00;99.90;;;;;;4992674;28;20034;-90
2023/09/14 12:47:18;;;;;;;6.13;1.52;;;18.00;99.90;;;;;;5005612;28;20047;-88
2023/09/14 12:49:45;;;;;;;6.00;1.92;;;17.90;99.90;;;;;;5005490;28;20091;-88
2023/09/14 12:52:13;;;;;;;6.45;1.50;;;18.10;99.90;;;;;;5003128;28;20120;-89